createdAt,value
2022-10-01T00:08:55.375Z,11.27
2022-10-01T00:18:57.821Z,6.45
2022-10-01T00:29:03.639Z,12.10
2022-10-01T00:39:05.584Z,14.85
2022-10-01T00:49:11.462Z,15.70
2022-10-01T00:59:50.642Z,15.65
2022-10-01T01:09:55.218Z,20.77
2022-10-01T01:20:15.404Z,21.05
2022-10-01T01:30:19.502Z,23.50
2022-10-01T01:40:22.130Z,15.75
2022-10-01T01:50:27.606Z,23.02
2022-10-01T02:00:29.705Z,15.63
2022-10-01T02:10:45.012Z,15.95
2022-10-01T02:20:50.441Z,21.73
2022-10-01T02:30:56.014Z,20.15
2022-10-01T02:41:00.585Z,17.33
2022-10-01T02:51:14.653Z,15.25
2022-10-01T03:01:16.790Z,24.73
2022-10-01T03:11:20.310Z,31.27
2022-10-01T03:21:22.334Z,24.17
2022-10-01T03:31:26.284Z,27.25
2022-10-01T03:41:28.463Z,24.08
2022-10-01T03:51:32.646Z,22.83
2022-10-01T04:01:35.317Z,20.95
2022-10-01T04:11:38.919Z,30.50
2022-10-01T04:21:40.924Z,29.65
2022-10-01T04:31:44.355Z,15.13
2022-10-01T04:41:46.423Z,20.38
2022-10-01T04:51:49.937Z,26.73
2022-10-01T05:01:52.332Z,23.92
2022-10-01T05:11:55.773Z,21.80
2022-10-01T05:21:57.779Z,18.25
2022-10-01T05:32:01.699Z,38.80
2022-10-01T05:42:06.559Z,35.80
2022-10-01T05:52:10.259Z,33.40
2022-10-01T06:02:12.294Z,30.50
2022-10-01T06:12:19.696Z,28.52
2022-10-01T06:22:22.006Z,27.50
2022-10-01T06:32:25.520Z,38.47
2022-10-01T06:42:27.568Z,30.73
2022-10-01T06:52:31.072Z,27.80
2022-10-01T07:02:33.126Z,30.05
2022-10-01T07:12:37.217Z,26.83
2022-10-01T07:22:39.285Z,22.70
2022-10-01T07:32:45.227Z,25.08
2022-10-01T07:42:53.099Z,48.72
2022-10-01T07:52:58.830Z,27.90
2022-10-01T08:03:00.924Z,24.58
2022-10-01T08:13:07.722Z,33.72
2022-10-01T08:23:11.815Z,19.42
2022-10-01T08:33:15.675Z,24.83
2022-10-01T08:43:30.306Z,22.10
2022-10-01T08:53:40.447Z,23.15
2022-10-01T09:03:42.528Z,16.58
2022-10-01T09:14:11.838Z,16.48
2022-10-01T09:24:15.438Z,17.05
2022-10-01T09:34:27.929Z,10.45
2022-10-01T09:44:32.275Z,11.05
2022-10-01T09:54:43.105Z,14.75
2022-10-01T10:04:45.178Z,12.02
2022-10-01T10:14:48.743Z,14.43
2022-10-01T10:24:51.343Z,10.90
2022-10-01T10:35:02.627Z,7.35
2022-10-01T10:45:16.958Z,6.72
2022-10-01T10:55:27.917Z,11.05
2022-10-01T11:05:31.979Z,13.48
2022-10-01T11:15:57.315Z,20.95
2022-10-01T11:26:08.905Z,17.05
2022-10-01T11:36:21.393Z,14.70
2022-10-01T11:46:35.097Z,10.93
2022-10-01T11:56:43.386Z,15.80
2022-10-01T12:06:54.843Z,19.95
2022-10-01T12:17:04.548Z,17.15
2022-10-01T12:27:26.380Z,11.00
2022-10-01T12:37:41.783Z,16.17
2022-10-01T12:47:51.504Z,19.88
2022-10-01T12:58:00.741Z,12.15
2022-10-01T13:18:21.252Z,20.48
2022-10-01T13:28:28.935Z,13.50
2022-10-01T13:38:41.744Z,14.07
2022-10-01T13:48:48.599Z,16.10
2022-10-01T13:58:52.099Z,14.68
2022-10-01T14:09:00.318Z,13.52
2022-10-01T14:19:04.528Z,14.60
2022-10-01T14:29:18.174Z,12.05
2022-10-01T14:39:23.456Z,11.48
2022-10-01T14:49:27.118Z,18.73
2022-10-01T14:59:35.868Z,7.60
2022-10-01T15:09:37.848Z,12.70
2022-10-01T15:19:46.104Z,10.77
2022-10-01T15:29:55.872Z,11.67
2022-10-01T15:40:01.030Z,12.68
2022-10-01T15:50:20.742Z,6.03
2022-10-01T16:00:26.529Z,9.55
2022-10-01T16:10:35.194Z,16.02
2022-10-01T16:20:46.590Z,14.13
2022-10-01T16:30:51.298Z,11.63
2022-10-01T16:40:54.871Z,12.25
2022-10-01T16:50:56.815Z,11.27
2022-10-01T17:01:00.495Z,10.88
2022-10-01T17:11:03.612Z,9.30
2022-10-01T17:21:08.953Z,11.20
2022-10-01T17:31:15.611Z,10.32
2022-10-01T17:41:21.194Z,12.23
2022-10-01T17:51:23.247Z,12.75
2022-10-01T18:01:26.957Z,12.10
2022-10-01T18:11:32.692Z,11.23
2022-10-01T18:21:36.111Z,12.05
2022-10-01T18:32:14.681Z,15.75
2022-10-01T18:42:25.108Z,10.55
2022-10-01T18:52:38.025Z,15.63
2022-10-01T19:03:12.947Z,16.15
2022-10-01T19:13:21.878Z,7.63
2022-10-01T19:23:58.586Z,13.33
2022-10-01T19:34:06.327Z,16.63
2022-10-01T19:44:15.229Z,11.02
2022-10-01T19:54:19.115Z,10.27
2022-10-01T20:04:35.168Z,17.30
2022-10-01T20:14:47.209Z,15.38
2022-10-01T20:25:00.376Z,17.92
2022-10-01T20:35:19.319Z,12.75
2022-10-01T20:45:26.562Z,13.20
2022-10-01T20:55:34.964Z,16.25
2022-10-01T21:05:43.082Z,18.48
2022-10-01T21:15:54.790Z,6.05
2022-10-01T21:26:11.677Z,8.57
2022-10-01T21:36:20.941Z,13.10
2022-10-01T21:46:31.612Z,11.70
2022-10-01T21:57:02.254Z,13.07
2022-10-01T22:07:14.583Z,14.20
2022-10-01T22:17:23.337Z,12.43
2022-10-01T22:27:31.966Z,20.10
2022-10-01T22:37:39.376Z,14.18
2022-10-01T22:47:57.886Z,18.58
2022-10-01T22:58:11.790Z,19.88
2022-10-01T23:08:22.961Z,17.15
2022-10-01T23:18:34.274Z,15.57
2022-10-01T23:28:51.545Z,17.90
2022-10-01T23:39:21.925Z,23.63
2022-10-01T23:49:30.329Z,22.17
2022-10-01T23:59:36.537Z,20.52
